Time;durP1;ratioP1;P1;durP2;ratioP2;P2;SDS_P1;SDS_P2;PMS_P1;PMS_P2;Temp;Humidity;BMP_temperature;BMP_pressure;BME280_temperature;BME280_humidity;BME280_pressure;Samples;Min_cycle;Max_cycle;Signal;HPM_P1;HPM_P2
2023/03/06 00:02:03;;;;;;;10.23;5.70;;;5.20;99.90;;;;;;4996624;28;20056;-80
2023/03/06 00:04:31;;;;;;;9.98;4.97;;;5.20;99.90;;;;;;4981026;28;20030;-82
2023/03/06 00:06:57;;;;;;;8.77;5.75;;;5.20;99.90;;;;;;4977686;28;20506;-80
2023/03/06 00:09:25;;;;;;;12.52;4.93;;;5.10;99.90;;;;;;4997875;28;20061;-79
2023/03/06 00:11:53;;;;;;;7.60;4.78;;;5.10;99.90;;;;;;4998874;28;20021;-78
2023/03/06 00:14:20;;;;;;;11.13;6.15;;;5.10;99.90;;;;;;4980594;28;20034;-81
2023/03/06 00:16:46;;;;;;;12.05;6.30;;;5.00;99.90;;;;;;4997708;28;20429;-80
2023/03/06 00:19:11;;;;;;;11.73;5.90;;;5.00;99.90;;;;;;4996617;28;20328;-80
2023/03/06 00:21:43;;;;;;;12.07;6.55;;;5.00;99.90;;;;;;5125139;23;20148;-78
2023/03/06 00:24:09;;;;;;;10.13;5.57;;;5.10;99.90;;;;;;4992242;28;20034;-80
2023/03/06 00:26:35;;;;;;;13.27;7.35;;;5.10;99.90;;;;;;4997098;28;20038;-81
2023/03/06 00:29:01;;;;;;;9.10;5.82;;;5.10;99.90;;;;;;4978713;28;20042;-83
2023/03/06 00:31:26;;;;;;;14.55;6.32;;;5.10;99.90;;;;;;4978998;28;20389;-79
2023/03/06 00:33:52;;;;;;;10.63;5.80;;;5.10;99.90;;;;;;4996124;28;20034;-80
2023/03/06 00:36:18;;;;;;;13.52;6.63;;;5.10;99.90;;;;;;4996578;28;20490;-80
2023/03/06 00:38:43;;;;;;;9.73;6.03;;;5.20;99.90;;;;;;4978661;28;20037;-80
2023/03/06 00:41:10;;;;;;;11.32;5.68;;;5.30;99.90;;;;;;4979533;28;20594;-80
2023/03/06 00:43:36;;;;;;;11.70;5.57;;;5.20;99.90;;;;;;4995601;28;20505;-81
2023/03/06 00:46:02;;;;;;;12.68;6.43;;;5.20;99.90;;;;;;4978599;28;20539;-82
2023/03/06 00:48:28;;;;;;;11.90;5.90;;;5.20;99.90;;;;;;4980855;28;20038;-80
2023/03/06 00:50:56;;;;;;;10.00;5.68;;;5.10;99.90;;;;;;4998005;28;20462;-81
2023/03/06 00:53:22;;;;;;;13.98;5.97;;;5.00;99.90;;;;;;5020717;28;20022;-81
2023/03/06 00:55:49;;;;;;;8.68;5.82;;;5.10;99.90;;;;;;5020304;28;20256;-80
2023/03/06 00:58:15;;;;;;;11.27;6.07;;;5.10;99.90;;;;;;5017153;28;20084;-80
2023/03/06 01:00:40;;;;;;;9.20;5.55;;;5.10;99.90;;;;;;5012029;28;20034;-81
2023/03/06 01:03:06;;;;;;;12.30;5.57;;;5.00;99.90;;;;;;4998676;28;20033;-81
2023/03/06 01:05:34;;;;;;;9.77;5.32;;;5.00;99.90;;;;;;4978980;28;20025;-82
2023/03/06 01:08:00;;;;;;;8.25;5.15;;;5.10;99.90;;;;;;4980435;28;20517;-81
2023/03/06 01:10:26;;;;;;;9.32;4.75;;;5.10;99.90;;;;;;4995974;28;20080;-80
2023/03/06 01:12:52;;;;;;;11.45;5.47;;;5.10;99.90;;;;;;4976739;28;20503;-81
2023/03/06 01:15:18;;;;;;;8.07;5.35;;;5.10;99.90;;;;;;4996227;28;20018;-81
2023/03/06 01:17:44;;;;;;;10.52;5.07;;;5.10;99.90;;;;;;4994004;28;20069;-80
2023/03/06 01:20:13;;;;;;;13.10;4.80;;;5.10;99.90;;;;;;4996338;28;20446;-80
2023/03/06 01:22:39;;;;;;;11.35;5.18;;;5.10;99.90;;;;;;4996423;28;20161;-81
2023/03/06 01:25:05;;;;;;;13.50;5.38;;;5.10;99.90;;;;;;4976121;28;20549;-81
2023/03/06 01:27:30;;;;;;;12.02;5.90;;;5.10;99.90;;;;;;4995948;28;20030;-80
2023/03/06 01:29:56;;;;;;;11.00;6.07;;;5.00;99.90;;;;;;4994181;28;20512;-81
2023/03/06 01:32:22;;;;;;;12.75;6.25;;;5.00;99.90;;;;;;4995979;28;20033;-80
2023/03/06 01:34:47;;;;;;;11.60;6.80;;;5.10;99.90;;;;;;4995056;28;20025;-81
2023/03/06 01:37:13;;;;;;;10.10;6.45;;;5.10;99.90;;;;;;4992903;28;20068;-81
2023/03/06 01:39:39;;;;;;;10.60;6.68;;;5.10;99.90;;;;;;4979436;28;20656;-80
2023/03/06 01:42:04;;;;;;;10.30;6.20;;;5.10;99.90;;;;;;4978747;28;20492;-80
2023/03/06 01:44:30;;;;;;;11.55;6.47;;;5.10;99.90;;;;;;4993727;28;20022;-81
2023/03/06 01:46:56;;;;;;;10.45;6.63;;;5.10;99.90;;;;;;4995113;28;20880;-81
2023/03/06 01:49:27;;;;;;;8.73;5.90;;;5.10;99.90;;;;;;4993237;28;20069;-81
2023/03/06 01:52:13;;;;;;;10.95;6.30;;;5.10;99.90;;;;;;4975869;28;20022;-80
2023/03/06 01:54:47;;;;;;;12.02;6.32;;;5.10;99.90;;;;;;4993930;28;20026;-80
2023/03/06 01:57:29;;;;;;;11.05;6.80;;;5.10;99.90;;;;;;4978735;28;20022;-80
2023/03/06 02:00:02;;;;;;;12.75;7.45;;;5.10;99.90;;;;;;4987186;28;20490;-80
2023/03/06 02:02:30;;;;;;;13.43;7.18;;;5.00;99.90;;;;;;4977654;28;21387;-81
2023/03/06 02:04:57;;;;;;;11.77;7.70;;;5.10;99.90;;;;;;4996163;28;20280;-79
2023/03/06 02:07:23;;;;;;;12.18;7.90;;;5.00;99.90;;;;;;4995594;28;20026;-81
2023/03/06 02:09:49;;;;;;;12.95;7.97;;;5.00;99.90;;;;;;4992493;28;20482;-81
2023/03/06 02:12:18;;;;;;;14.77;7.75;;;4.90;99.90;;;;;;4995782;28;20223;-82
2023/03/06 02:14:47;;;;;;;16.10;8.95;;;4.90;99.90;;;;;;4976708;28;20436;-82
2023/03/06 02:17:15;;;;;;;14.15;7.60;;;4.80;99.90;;;;;;4976305;28;20040;-81
2023/03/06 02:20:02;;;;;;;15.20;8.85;;;4.80;99.90;;;;;;4991376;28;20018;-81
2023/03/06 02:22:42;;;;;;;13.82;8.63;;;4.80;99.90;;;;;;4995618;28;20034;-82
2023/03/06 02:25:32;;;;;;;16.73;7.93;;;4.80;99.90;;;;;;4993930;28;20081;-81
2023/03/06 02:27:58;;;;;;;13.60;8.00;;;4.70;99.90;;;;;;4976540;28;20025;-80
2023/03/06 02:30:26;;;;;;;15.93;8.25;;;4.60;99.90;;;;;;4991317;28;20112;-81
2023/03/06 02:32:52;;;;;;;17.60;8.13;;;4.60;99.90;;;;;;4994882;28;20037;-81
2023/03/06 02:35:24;;;;;;;14.35;7.90;;;4.60;99.90;;;;;;4995387;28;20441;-81
2023/03/06 02:37:50;;;;;;;13.40;8.32;;;4.60;99.90;;;;;;4984844;28;20022;-82
2023/03/06 02:40:19;;;;;;;14.52;8.57;;;4.60;99.90;;;;;;4995612;28;20068;-81
2023/03/06 02:42:46;;;;;;;14.52;8.45;;;4.70;99.90;;;;;;4993648;28;20413;-82
2023/03/06 02:45:16;;;;;;;12.55;7.72;;;4.70;99.90;;;;;;4994308;28;20092;-82
2023/03/06 02:47:41;;;;;;;17.67;8.38;;;4.70;99.90;;;;;;4991191;28;20268;-81
2023/03/06 02:50:08;;;;;;;14.30;7.32;;;4.70;99.90;;;;;;4976102;28;21464;-80
2023/03/06 02:52:34;;;;;;;18.00;8.70;;;4.60;99.90;;;;;;4995513;28;20034;-80
2023/03/06 02:55:00;;;;;;;13.60;7.82;;;4.60;99.90;;;;;;4993813;28;20032;-81
2023/03/06 02:57:25;;;;;;;12.77;7.97;;;4.70;99.90;;;;;;4993572;28;20466;-81
2023/03/06 02:59:51;;;;;;;18.38;7.78;;;4.60;99.90;;;;;;4996716;28;20034;-81
2023/03/06 03:02:16;;;;;;;16.13;7.95;;;4.50;99.90;;;;;;4980286;28;20442;-81
2023/03/06 03:04:42;;;;;;;15.35;8.13;;;4.50;99.90;;;;;;4997377;28;20101;-81
2023/03/06 03:07:10;;;;;;;15.40;7.97;;;4.50;99.90;;;;;;4979318;28;20037;-80
2023/03/06 03:09:36;;;;;;;12.93;7.85;;;4.50;99.90;;;;;;4998205;28;20614;-80
2023/03/06 03:12:06;;;;;;;17.55;8.25;;;4.60;99.90;;;;;;4997748;28;20196;-80
2023/03/06 03:14:32;;;;;;;11.50;7.65;;;4.60;99.90;;;;;;4997852;28;20477;-81
2023/03/06 03:16:59;;;;;;;15.18;8.43;;;4.70;99.90;;;;;;4995342;28;20033;-81
2023/03/06 03:19:24;;;;;;;13.50;8.80;;;4.70;99.90;;;;;;4979993;28;20021;-81
2023/03/06 03:21:50;;;;;;;16.08;8.30;;;4.70;99.90;;;;;;4998805;28;20029;-81
2023/03/06 03:24:16;;;;;;;14.02;8.50;;;4.80;99.90;;;;;;4997816;28;20083;-81
2023/03/06 03:26:41;;;;;;;14.75;8.88;;;4.70;99.90;;;;;;4981012;28;20481;-81
2023/03/06 03:29:08;;;;;;;19.23;8.70;;;4.70;99.90;;;;;;4996310;28;20168;-81
2023/03/06 03:31:34;;;;;;;20.27;9.45;;;4.70;99.90;;;;;;4997580;28;20064;-82
2023/03/06 03:33:59;;;;;;;17.77;10.15;;;4.70;99.90;;;;;;4996772;28;20490;-80
2023/03/06 03:36:28;;;;;;;17.58;10.05;;;4.60;99.90;;;;;;4998839;28;20026;-80
2023/03/06 03:38:53;;;;;;;21.80;10.82;;;4.70;99.90;;;;;;4980090;28;20030;-81
2023/03/06 03:41:19;;;;;;;22.33;10.70;;;4.60;99.90;;;;;;4995806;28;20116;-81
2023/03/06 03:43:45;;;;;;;24.15;11.25;;;4.60;99.90;;;;;;4995825;28;20022;-81
2023/03/06 03:46:10;;;;;;;23.05;11.20;;;4.60;99.90;;;;;;4997204;28;20385;-81
2023/03/06 03:48:36;;;;;;;25.35;13.10;;;4.50;99.90;;;;;;4979106;28;20068;-81
2023/03/06 03:51:07;;;;;;;24.98;12.90;;;4.50;99.90;;;;;;4997823;28;20038;-80
2023/03/06 03:53:33;;;;;;;25.15;13.40;;;4.50;99.90;;;;;;4979136;28;20551;-81
2023/03/06 03:55:59;;;;;;;32.60;12.23;;;4.50;99.90;;;;;;4996893;28;20325;-80
2023/03/06 03:58:24;;;;;;;23.85;11.70;;;4.50;99.90;;;;;;4997087;28;20025;-81
2023/03/06 04:00:50;;;;;;;24.98;10.77;;;4.50;99.90;;;;;;4998101;28;20022;-79
2023/03/06 04:03:15;;;;;;;23.40;10.90;;;4.50;99.90;;;;;;4998051;28;20049;-81
2023/03/06 04:05:41;;;;;;;18.90;9.57;;;4.40;99.90;;;;;;4977549;28;20992;-80
2023/03/06 04:08:07;;;;;;;20.08;10.88;;;4.40;99.90;;;;;;4977857;28;20692;-81
2023/03/06 04:10:33;;;;;;;21.65;10.05;;;4.40;99.90;;;;;;4996842;28;20379;-81
2023/03/06 04:12:59;;;;;;;20.95;10.63;;;4.40;99.90;;;;;;4993752;28;20029;-80
2023/03/06 04:15:25;;;;;;;22.85;10.13;;;4.40;99.90;;;;;;4997456;28;20034;-79
2023/03/06 04:17:51;;;;;;;17.63;9.98;;;4.40;99.90;;;;;;4973893;28;20022;-80
2023/03/06 04:20:17;;;;;;;16.38;9.75;;;4.30;99.90;;;;;;4977653;28;20525;-80
2023/03/06 04:22:43;;;;;;;20.08;8.80;;;4.40;99.90;;;;;;4996850;28;20769;-80
2023/03/06 04:25:09;;;;;;;16.55;9.63;;;4.40;99.90;;;;;;4995753;28;20032;-80
2023/03/06 04:27:34;;;;;;;16.65;9.75;;;4.40;99.90;;;;;;4997571;28;20133;-79
2023/03/06 04:30:00;;;;;;;13.95;8.77;;;4.40;99.90;;;;;;4997270;28;20299;-79
2023/03/06 04:32:26;;;;;;;13.98;7.82;;;4.40;99.90;;;;;;4997284;28;20030;-79
2023/03/06 04:34:51;;;;;;;14.50;8.40;;;4.40;99.90;;;;;;4977914;28;20041;-80
2023/03/06 04:37:22;;;;;;;19.08;8.88;;;4.40;99.90;;;;;;4976107;28;20022;-79
2023/03/06 04:39:48;;;;;;;18.20;8.52;;;4.40;99.90;;;;;;4978757;28;20088;-79
2023/03/06 04:42:14;;;;;;;17.63;9.05;;;4.40;99.90;;;;;;4993683;28;20037;-80
2023/03/06 04:44:40;;;;;;;22.42;9.45;;;4.30;99.90;;;;;;4995816;28;20014;-79
2023/03/06 04:47:05;;;;;;;16.63;9.05;;;4.30;99.90;;;;;;4996520;28;20018;-80
2023/03/06 04:49:31;;;;;;;16.10;8.45;;;4.30;99.90;;;;;;4997295;28;20761;-80
2023/03/06 04:51:57;;;;;;;20.40;9.40;;;4.30;99.90;;;;;;4997716;28;20222;-80
2023/03/06 04:54:22;;;;;;;16.52;8.63;;;4.30;99.90;;;;;;5003603;28;20022;-80
2023/03/06 04:56:48;;;;;;;18.00;9.02;;;4.30;99.90;;;;;;5005892;28;20080;-80
2023/03/06 04:59:13;;;;;;;16.48;8.18;;;4.30;99.90;;;;;;4991808;28;20053;-79
2023/03/06 05:01:39;;;;;;;15.80;9.10;;;4.30;99.90;;;;;;5008229;28;20033;-80
2023/03/06 05:04:12;;;;;;;15.77;8.82;;;4.20;99.90;;;;;;5003005;28;20049;-80
2023/03/06 05:06:38;;;;;;;17.75;9.10;;;4.10;99.90;;;;;;5002502;28;20022;-80
2023/03/06 05:09:03;;;;;;;17.40;9.07;;;4.20;99.90;;;;;;5000960;28;20060;-81
2023/03/06 05:11:29;;;;;;;15.73;9.07;;;4.20;99.90;;;;;;4993758;28;20058;-80
2023/03/06 05:13:55;;;;;;;19.48;8.90;;;4.10;99.90;;;;;;4980580;28;20482;-80
2023/03/06 05:16:20;;;;;;;16.92;9.27;;;4.20;99.90;;;;;;4987878;28;20090;-79
2023/03/06 05:18:46;;;;;;;15.85;9.10;;;4.20;99.90;;;;;;5005899;28;20395;-78
2023/03/06 05:21:12;;;;;;;17.20;9.57;;;4.20;99.90;;;;;;4995621;28;20037;-80
2023/03/06 05:23:37;;;;;;;18.48;9.38;;;4.20;99.90;;;;;;4997851;28;20097;-79
2023/03/06 05:26:11;;;;;;;17.95;9.77;;;4.10;99.90;;;;;;4996373;28;20058;-79
2023/03/06 05:28:37;;;;;;;16.65;9.02;;;4.10;99.90;;;;;;4996214;28;20416;-79
2023/03/06 05:31:03;;;;;;;19.20;10.48;;;4.10;99.90;;;;;;4976087;28;20300;-79
2023/03/06 05:33:34;;;;;;;15.27;8.98;;;4.10;99.90;;;;;;4996577;28;20041;-80
2023/03/06 05:36:00;;;;;;;19.98;9.10;;;4.10;99.90;;;;;;4995927;28;20034;-80
2023/03/06 05:38:26;;;;;;;18.35;9.88;;;4.10;99.90;;;;;;5000187;28;20026;-79
2023/03/06 05:40:52;;;;;;;19.55;9.85;;;4.20;99.90;;;;;;4980117;28;20083;-80
2023/03/06 05:43:20;;;;;;;19.48;10.32;;;4.10;99.90;;;;;;4979630;28;20018;-80
2023/03/06 05:45:45;;;;;;;18.90;10.15;;;4.10;99.90;;;;;;4990736;28;20591;-80
2023/03/06 05:48:12;;;;;;;21.90;10.93;;;4.10;99.90;;;;;;4979110;28;20021;-80
2023/03/06 05:50:39;;;;;;;19.40;9.98;;;4.10;99.90;;;;;;4995066;28;20033;-81
2023/03/06 05:53:04;;;;;;;24.48;9.98;;;4.10;99.90;;;;;;4974905;28;20057;-80
2023/03/06 05:55:32;;;;;;;19.13;10.38;;;4.20;99.90;;;;;;4990229;28;20414;-81
2023/03/06 05:57:58;;;;;;;24.30;10.82;;;4.10;99.90;;;;;;4989543;28;20026;-80
2023/03/06 06:00:24;;;;;;;21.77;10.70;;;4.20;99.90;;;;;;4968671;28;20548;-81
2023/03/06 06:02:49;;;;;;;23.83;11.63;;;4.20;99.90;;;;;;4995824;28;20080;-79
2023/03/06 06:05:15;;;;;;;23.83;10.43;;;4.20;99.90;;;;;;4995209;28;20029;-80
2023/03/06 06:07:45;;;;;;;27.83;11.00;;;4.20;99.90;;;;;;4992519;28;20081;-80
2023/03/06 06:10:14;;;;;;;17.88;10.57;;;4.30;99.90;;;;;;4993314;28;20037;-80
2023/03/06 06:12:39;;;;;;;19.73;9.98;;;4.20;99.90;;;;;;4977455;28;20127;-80
2023/03/06 06:15:06;;;;;;;23.95;11.05;;;4.20;99.90;;;;;;4977515;28;20021;-81
2023/03/06 06:17:34;;;;;;;25.27;11.57;;;4.30;99.90;;;;;;4995268;28;20057;-80
2023/03/06 06:19:59;;;;;;;19.80;10.98;;;4.30;99.90;;;;;;4992862;28;20033;-81
2023/03/06 06:22:25;;;;;;;27.23;11.57;;;4.20;99.90;;;;;;4998251;28;20034;-80
2023/03/06 06:24:50;;;;;;;22.05;12.25;;;4.20;99.90;;;;;;4974591;28;20637;-81
2023/03/06 06:27:18;;;;;;;20.13;11.60;;;4.30;99.90;;;;;;4975286;28;20041;-81
2023/03/06 06:29:46;;;;;;;19.67;10.80;;;4.30;99.90;;;;;;4975867;28;20609;-81
2023/03/06 06:32:11;;;;;;;21.65;11.35;;;4.30;99.90;;;;;;4977151;28;20060;-81
2023/03/06 06:34:39;;;;;;;26.20;12.00;;;4.20;99.90;;;;;;4994741;28;20605;-81
2023/03/06 06:37:05;;;;;;;22.70;11.75;;;4.20;99.90;;;;;;4993585;28;21586;-81
2023/03/06 06:39:31;;;;;;;22.55;10.85;;;4.30;99.90;;;;;;4995288;28;20525;-82
2023/03/06 06:41:56;;;;;;;27.38;10.93;;;4.20;99.90;;;;;;4994404;28;20033;-80
2023/03/06 06:44:22;;;;;;;16.58;9.93;;;4.20;99.90;;;;;;4995587;28;20112;-80
2023/03/06 06:46:49;;;;;;;18.05;10.38;;;4.20;99.90;;;;;;4975228;28;20100;-80
2023/03/06 06:49:15;;;;;;;27.92;10.65;;;4.20;99.90;;;;;;4996267;28;20041;-80
2023/03/06 06:51:43;;;;;;;23.58;11.13;;;4.30;99.90;;;;;;4978866;28;20030;-81
2023/03/06 06:54:10;;;;;;;22.52;10.38;;;4.30;99.90;;;;;;4973958;28;20120;-80
2023/03/06 06:56:35;;;;;;;18.60;9.40;;;4.30;99.90;;;;;;4996836;28;20041;-79
2023/03/06 06:59:01;;;;;;;22.17;10.25;;;4.20;99.90;;;;;;4975706;28;20381;-80
2023/03/06 07:01:28;;;;;;;18.65;9.85;;;4.20;99.90;;;;;;4995972;28;20018;-80
2023/03/06 07:03:53;;;;;;;21.98;9.95;;;4.20;99.90;;;;;;4995603;28;20325;-81
2023/03/06 07:06:19;;;;;;;16.88;8.85;;;4.30;99.90;;;;;;4993904;28;20025;-81
2023/03/06 07:08:45;;;;;;;16.70;9.65;;;4.30;99.90;;;;;;4996537;28;20116;-81
2023/03/06 07:11:16;;;;;;;16.73;8.65;;;4.30;99.90;;;;;;4991896;28;20026;-81
2023/03/06 07:13:42;;;;;;;16.40;8.98;;;4.30;99.90;;;;;;4977374;28;20034;-81
2023/03/06 07:16:08;;;;;;;17.85;9.18;;;4.40;99.90;;;;;;4995683;28;20026;-81
2023/03/06 07:18:34;;;;;;;17.00;8.98;;;4.40;99.90;;;;;;4993823;28;20498;-82
2023/03/06 07:20:59;;;;;;;23.45;8.55;;;4.30;99.90;;;;;;4994831;28;20096;-81
2023/03/06 07:23:25;;;;;;;15.88;8.65;;;4.30;99.90;;;;;;4976355;28;20049;-80
2023/03/06 07:25:52;;;;;;;19.05;8.45;;;4.40;99.90;;;;;;4994201;28;20104;-81
2023/03/06 07:28:18;;;;;;;17.80;8.52;;;4.40;99.90;;;;;;4994271;28;20064;-81
2023/03/06 07:30:43;;;;;;;17.02;8.32;;;4.40;99.90;;;;;;4978181;28;20385;-80
2023/03/06 07:33:09;;;;;;;16.80;8.88;;;4.40;99.90;;;;;;4993922;28;20593;-81
2023/03/06 07:35:35;;;;;;;15.98;8.48;;;4.40;99.90;;;;;;4976868;28;20079;-81
2023/03/06 07:38:01;;;;;;;16.85;8.60;;;4.50;99.90;;;;;;4976291;28;20022;-81
2023/03/06 07:40:27;;;;;;;14.98;8.50;;;4.50;99.90;;;;;;4977649;28;20023;-81
2023/03/06 07:42:56;;;;;;;17.40;8.85;;;4.50;99.90;;;;;;4995010;28;20037;-80
2023/03/06 07:45:22;;;;;;;18.98;9.38;;;4.50;99.90;;;;;;4996210;28;20022;-81
2023/03/06 07:47:53;;;;;;;17.98;8.60;;;4.50;99.90;;;;;;4998264;28;20390;-82
2023/03/06 07:50:19;;;;;;;23.63;9.10;;;4.60;99.90;;;;;;4979149;28;20941;-81
2023/03/06 07:52:46;;;;;;;17.65;8.95;;;4.60;99.90;;;;;;4998112;28;20090;-82
2023/03/06 07:55:12;;;;;;;18.90;7.80;;;4.70;99.90;;;;;;4978908;28;20033;-82
2023/03/06 07:57:37;;;;;;;19.70;7.57;;;4.70;99.90;;;;;;4993170;28;20030;-83
2023/03/06 08:00:12;;;;;;;17.63;7.80;;;4.70;99.90;;;;;;4996685;28;20034;-81
2023/03/06 08:02:38;;;;;;;15.40;7.53;;;4.60;99.90;;;;;;4995669;28;20025;-80
2023/03/06 08:05:05;;;;;;;18.20;7.50;;;4.70;99.90;;;;;;4998005;28;20033;-81
2023/03/06 08:07:30;;;;;;;22.55;7.60;;;4.70;99.90;;;;;;4979918;28;20037;-81
2023/03/06 08:09:56;;;;;;;19.25;7.90;;;4.60;99.90;;;;;;4980053;28;20052;-81
2023/03/06 08:12:22;;;;;;;15.85;8.70;;;4.70;99.90;;;;;;4979189;28;20017;-81
2023/03/06 08:14:48;;;;;;;17.77;8.23;;;4.70;99.90;;;;;;4998176;28;20093;-81
2023/03/06 08:17:13;;;;;;;20.70;8.75;;;4.50;99.90;;;;;;4998720;28;20457;-84
2023/03/06 08:19:39;;;;;;;17.52;8.35;;;4.50;99.90;;;;;;4996761;28;20437;-81
2023/03/06 08:22:05;;;;;;;15.02;7.80;;;4.50;99.90;;;;;;4995247;28;20038;-80
2023/03/06 08:24:32;;;;;;;16.90;8.32;;;4.50;99.90;;;;;;4997042;28;20096;-80
2023/03/06 08:27:00;;;;;;;17.42;9.18;;;4.60;99.90;;;;;;4995904;28;20511;-79
2023/03/06 08:29:26;;;;;;;19.80;8.38;;;4.60;99.90;;;;;;4996056;28;20084;-82
2023/03/06 08:31:52;;;;;;;16.90;8.57;;;4.70;99.90;;;;;;4998512;28;20108;-80
2023/03/06 08:34:20;;;;;;;18.48;7.55;;;4.70;99.90;;;;;;4977357;28;20585;-81
2023/03/06 08:36:45;;;;;;;15.07;7.68;;;4.70;99.90;;;;;;4977297;28;20037;-81
2023/03/06 08:39:12;;;;;;;21.88;9.05;;;4.80;99.90;;;;;;4996459;28;20049;-80
2023/03/06 08:41:39;;;;;;;17.83;8.60;;;4.80;99.90;;;;;;4977855;28;20073;-81
2023/03/06 08:44:05;;;;;;;19.58;8.25;;;4.80;99.90;;;;;;4979832;28;20022;-80
2023/03/06 08:46:32;;;;;;;21.02;9.65;;;4.90;99.90;;;;;;4995156;28;20037;-81
2023/03/06 08:48:58;;;;;;;24.15;9.65;;;4.90;99.90;;;;;;4997475;28;20576;-81
2023/03/06 08:51:24;;;;;;;21.08;9.20;;;5.00;99.90;;;;;;4977959;28;20093;-81
2023/03/06 08:53:51;;;;;;;20.05;8.27;;;5.10;99.90;;;;;;4994327;28;20030;-81
2023/03/06 08:56:18;;;;;;;17.45;9.35;;;5.10;99.90;;;;;;4996972;28;20108;-81
2023/03/06 08:58:46;;;;;;;20.40;9.35;;;5.10;99.90;;;;;;4976983;28;20022;-81
2023/03/06 09:01:36;;;;;;;23.88;10.30;;;5.20;99.90;;;;;;4978210;28;20111;-81
2023/03/06 09:04:07;;;;;;;18.83;9.30;;;5.30;99.90;;;;;;4995446;28;20026;-79
2023/03/06 09:06:38;;;;;;;22.35;10.63;;;5.30;99.90;;;;;;4979990;28;20036;-82
2023/03/06 09:09:04;;;;;;;20.27;8.65;;;5.20;99.90;;;;;;4995851;28;20092;-81
2023/03/06 09:11:30;;;;;;;21.35;9.38;;;5.40;99.90;;;;;;4978803;28;20022;-82
2023/03/06 09:13:56;;;;;;;18.83;8.98;;;5.50;99.90;;;;;;4996876;28;20362;-82
2023/03/06 09:16:23;;;;;;;16.00;8.50;;;5.50;99.90;;;;;;4973559;28;20362;-81
2023/03/06 09:18:51;;;;;;;16.63;8.15;;;5.60;99.90;;;;;;4992872;28;20098;-81
2023/03/06 09:21:17;;;;;;;18.35;8.35;;;5.70;99.90;;;;;;4993320;28;20029;-81
2023/03/06 09:23:43;;;;;;;17.25;8.70;;;5.80;99.90;;;;;;4976890;28;20044;-82
2023/03/06 09:26:11;;;;;;;14.13;7.55;;;5.90;99.90;;;;;;4995061;28;20135;-81
2023/03/06 09:28:38;;;;;;;15.93;8.15;;;6.00;99.90;;;;;;4991520;28;20056;-82
2023/03/06 09:31:19;;;;;;;13.15;5.95;;;6.00;99.90;;;;;;4994444;28;20022;-82
2023/03/06 09:33:47;;;;;;;13.95;7.22;;;6.00;99.90;;;;;;4996268;28;20515;-82
2023/03/06 09:36:20;;;;;;;16.42;7.05;;;6.10;99.90;;;;;;4994304;28;20324;-82
2023/03/06 09:38:48;;;;;;;9.15;5.72;;;6.30;99.90;;;;;;4979780;28;20033;-82
2023/03/06 09:41:35;;;;;;;10.65;6.18;;;6.40;99.90;;;;;;4996026;28;20025;-82
2023/03/06 09:44:03;;;;;;;11.43;5.50;;;6.40;99.90;;;;;;4978393;28;20025;-82
2023/03/06 09:46:44;;;;;;;9.32;5.60;;;6.40;99.90;;;;;;4996159;28;20025;-83
2023/03/06 09:49:24;;;;;;;10.65;5.50;;;6.40;99.90;;;;;;4995064;28;20038;-81
2023/03/06 09:52:05;;;;;;;10.60;6.22;;;6.50;99.90;;;;;;4992235;28;20022;-81
2023/03/06 09:54:59;;;;;;;8.27;4.68;;;6.40;99.90;;;;;;4994497;28;20060;-82
2023/03/06 09:57:30;;;;;;;11.52;5.43;;;6.40;99.90;;;;;;4976040;28;20038;-84
2023/03/06 10:00:06;;;;;;;10.27;5.07;;;6.60;99.90;;;;;;4995570;28;20045;-82
2023/03/06 10:02:37;;;;;;;10.40;4.65;;;6.60;99.90;;;;;;4978324;28;20116;-83
2023/03/06 10:05:05;;;;;;;7.70;4.97;;;6.70;99.90;;;;;;4994107;28;20358;-82
2023/03/06 10:08:12;;;;;;;7.72;4.93;;;6.70;99.90;;;;;;4996327;28;20017;-82
2023/03/06 10:10:48;;;;;;;6.18;4.10;;;6.80;99.90;;;;;;4946752;28;20045;-83
2023/03/06 10:13:27;;;;;;;5.70;4.07;;;6.90;99.90;;;;;;4995923;28;20025;-82
2023/03/06 10:16:27;;;;;;;3.80;2.88;;;7.10;99.90;;;;;;4977065;28;20030;-82
2023/03/06 10:18:58;;;;;;;2.78;2.40;;;7.10;99.90;;;;;;4995889;28;20129;-82
2023/03/06 10:21:48;;;;;;;2.20;2.05;;;7.20;99.90;;;;;;4993491;28;20044;-83
2023/03/06 10:24:47;;;;;;;1.80;1.70;;;7.50;99.90;;;;;;4995431;28;20037;-81
2023/03/06 10:27:48;;;;;;;3.03;2.20;;;7.80;99.90;;;;;;5000872;28;20033;-82
2023/03/06 10:30:38;;;;;;;2.83;2.60;;;7.90;99.90;;;;;;4981205;28;20038;-82
2023/03/06 10:33:38;;;;;;;7.57;2.60;;;8.00;99.90;;;;;;5006929;28;20147;-83
2023/03/06 10:36:04;;;;;;;3.47;2.50;;;8.00;99.90;;;;;;4991305;28;20032;-84
2023/03/06 10:38:29;;;;;;;4.05;2.40;;;7.90;99.90;;;;;;4974587;28;20022;-82
2023/03/06 10:41:10;;;;;;;5.80;3.58;;;7.90;99.90;;;;;;4990785;28;20214;-78
2023/03/06 10:44:04;;;;;;;2.88;2.55;;;8.10;99.90;;;;;;4992324;28;20024;-82
2023/03/06 10:46:43;;;;;;;9.90;2.65;;;8.20;99.90;;;;;;4990717;28;20079;-80
2023/03/06 10:49:35;;;;;;;3.97;2.20;;;8.20;99.90;;;;;;4993462;28;20041;-82
2023/03/06 10:52:12;;;;;;;3.28;2.35;;;9.30;99.90;;;;;;4994032;28;20079;-82
2023/03/06 10:54:41;;;;;;;5.13;2.50;;;9.90;99.90;;;;;;4976010;28;20409;-82
2023/03/06 10:57:29;;;;;;;2.38;1.90;;;10.70;99.90;;;;;;4993065;28;20024;-80
2023/03/06 10:59:56;;;;;;;2.25;1.75;;;11.40;99.90;;;;;;4991107;28;20033;-81
2023/03/06 11:02:39;;;;;;;2.92;1.85;;;11.30;99.90;;;;;;4977333;28;20024;-81
2023/03/06 11:05:17;;;;;;;1.67;1.58;;;11.20;99.90;;;;;;4993512;28;20123;-80
2023/03/06 11:08:00;;;;;;;1.48;1.35;;;11.10;99.90;;;;;;4994183;28;20069;-80
2023/03/06 11:10:27;;;;;;;2.13;1.63;;;10.70;99.90;;;;;;4975230;28;20128;-82
2023/03/06 11:13:06;;;;;;;1.98;1.88;;;10.30;99.90;;;;;;4976188;28;20134;-82
2023/03/06 11:15:32;;;;;;;2.65;2.13;;;10.10;99.90;;;;;;4987282;28;20036;-81
2023/03/06 11:18:03;;;;;;;2.15;1.98;;;10.10;99.90;;;;;;4988981;28;20116;-81
2023/03/06 11:20:48;;;;;;;4.20;2.50;;;10.00;99.90;;;;;;4994144;28;20041;-79
2023/03/06 11:23:35;;;;;;;2.53;2.33;;;9.70;99.90;;;;;;4976478;28;20493;-82
2023/03/06 11:26:16;;;;;;;1.95;1.77;;;9.20;99.90;;;;;;4994560;28;20018;-80
2023/03/06 11:29:05;;;;;;;1.85;1.60;;;9.00;99.90;;;;;;4994906;28;20128;-80
2023/03/06 11:31:37;;;;;;;1.83;1.55;;;9.10;99.90;;;;;;4993976;28;20593;-79
2023/03/06 11:34:18;;;;;;;1.30;1.17;;;9.30;99.90;;;;;;4977863;28;20061;-82
2023/03/06 11:36:52;;;;;;;1.58;1.48;;;9.20;99.90;;;;;;4976780;28;20029;-79
2023/03/06 11:39:29;;;;;;;3.08;1.30;;;9.30;99.90;;;;;;4980434;28;20015;-80
2023/03/06 11:42:10;;;;;;;1.38;1.27;;;9.40;99.90;;;;;;4994195;28;20702;-80
2023/03/06 11:45:01;;;;;;;2.80;1.60;;;9.20;99.90;;;;;;4994618;28;20030;-80
2023/03/06 11:47:39;;;;;;;3.30;1.30;;;9.10;99.90;;;;;;4995498;28;20521;-80
2023/03/06 11:50:13;;;;;;;2.13;1.38;;;9.00;99.90;;;;;;4997812;28;20096;-79
2023/03/06 11:53:04;;;;;;;3.55;1.08;;;9.00;99.90;;;;;;4990121;28;20060;-77
2023/03/06 11:55:29;;;;;;;2.45;1.20;;;9.20;99.90;;;;;;4991950;28;20026;-80
2023/03/06 11:58:15;;;;;;;1.88;1.30;;;9.30;99.90;;;;;;4995293;28;20022;-80
2023/03/06 12:00:59;;;;;;;1.40;1.30;;;9.50;99.90;;;;;;4950887;28;20042;-80
2023/03/06 12:03:46;;;;;;;1.05;0.95;;;9.60;99.90;;;;;;4975844;28;20018;-80
2023/03/06 12:06:50;;;;;;;1.50;1.00;;;9.40;99.90;;;;;;4998481;28;20064;-80
2023/03/06 12:09:22;;;;;;;1.40;1.30;;;9.40;99.90;;;;;;4994920;28;20057;-80
2023/03/06 12:11:53;;;;;;;1.83;1.08;;;9.80;99.90;;;;;;4980563;28;20026;-81
2023/03/06 12:15:01;;;;;;;0.95;0.90;;;10.50;99.90;;;;;;4991050;28;20457;-82
2023/03/06 12:17:51;;;;;;;1.50;0.80;;;10.70;99.90;;;;;;4973590;28;20238;-81
2023/03/06 12:20:26;;;;;;;0.90;0.90;;;10.80;99.10;;;;;;4994110;28;20378;-81
2023/03/06 12:22:56;;;;;;;1.30;0.80;;;10.60;98.60;;;;;;4995232;28;20556;-81
2023/03/06 12:25:27;;;;;;;1.23;1.00;;;10.30;98.90;;;;;;4979383;28;20015;-82
2023/03/06 12:27:52;;;;;;;3.70;1.17;;;10.10;99.60;;;;;;4992782;28;20038;-80
2023/03/06 12:30:27;;;;;;;2.08;0.90;;;10.00;99.10;;;;;;4991681;28;20116;-84
2023/03/06 12:33:08;;;;;;;3.58;1.20;;;9.80;99.50;;;;;;4988771;28;20096;-83
2023/03/06 12:35:49;;;;;;;0.82;0.73;;;10.00;98.80;;;;;;4988840;28;20080;-81
2023/03/06 12:38:43;;;;;;;1.60;0.90;;;10.40;98.10;;;;;;4990193;28;20100;-80
2023/03/06 12:41:27;;;;;;;1.85;1.13;;;10.80;96.30;;;;;;4973479;28;20510;-78
2023/03/06 12:43:56;;;;;;;2.25;1.10;;;11.50;95.30;;;;;;4988835;28;20477;-79
2023/03/06 12:46:24;;;;;;;4.45;0.88;;;11.80;93.80;;;;;;4985558;28;20068;-79
2023/03/06 12:49:04;;;;;;;6.47;0.90;;;12.30;93.60;;;;;;4987999;28;20106;-79
2023/03/06 12:51:31;;;;;;;0.70;0.70;;;12.30;90.90;;;;;;4990338;28;20391;-82
2023/03/06 12:53:59;;;;;;;0.70;0.70;;;12.10;88.50;;;;;;4984638;28;20011;-82
2023/03/06 12:56:27;;;;;;;1.00;0.80;;;12.60;90.40;;;;;;4994015;28;20021;-81
2023/03/06 12:59:01;;;;;;;2.55;0.88;;;13.30;92.30;;;;;;4994777;28;20030;-82
2023/03/06 13:01:38;;;;;;;0.60;0.60;;;13.40;87.30;;;;;;4995634;28;20126;-82
2023/03/06 13:04:23;;;;;;;2.33;0.75;;;13.10;81.30;;;;;;4994385;28;20030;-81